sensor_id;sensor_type;location;lat;lon;timestamp;pressure;altitude;pressure_sealevel;temperature;humidity
50011;BME280;35899;50.352;19.390;2023-03-16T00:00:25;97909.21;;;-1.30;81.57
50011;BME280;35899;50.352;19.390;2023-03-16T00:03:13;97909.25;;;-1.32;81.57
50011;BME280;35899;50.352;19.390;2023-03-16T00:05:39;97911.63;;;-1.33;81.49
50011;BME280;35899;50.352;19.390;2023-03-16T00:08:06;97912.66;;;-1.33;81.59
50011;BME280;35899;50.352;19.390;2023-03-16T00:10:32;97914.40;;;-1.35;81.87
50011;BME280;35899;50.352;19.390;2023-03-16T00:12:59;97919.16;;;-1.35;81.89
50011;BME280;35899;50.352;19.390;2023-03-16T00:15:25;97919.73;;;-1.38;82.03
50011;BME280;35899;50.352;19.390;2023-03-16T00:17:52;97922.33;;;-1.40;82.44
50011;BME280;35899;50.352;19.390;2023-03-16T00:20:18;97922.17;;;-1.41;82.63
50011;BME280;35899;50.352;19.390;2023-03-16T00:22:44;97924.42;;;-1.43;82.49
50011;BME280;35899;50.352;19.390;2023-03-16T00:25:11;97927.54;;;-1.45;82.59
50011;BME280;35899;50.352;19.390;2023-03-16T00:27:38;97927.39;;;-1.47;82.80
50011;BME280;35899;50.352;19.390;2023-03-16T00:30:05;97930.98;;;-1.48;83.03
50011;BME280;35899;50.352;19.390;2023-03-16T00:32:32;97931.38;;;-1.50;83.37
50011;BME280;35899;50.352;19.390;2023-03-16T00:34:59;97932.41;;;-1.51;83.46
50011;BME280;35899;50.352;19.390;2023-03-16T00:37:27;97930.41;;;-1.53;83.75
50011;BME280;35899;50.352;19.390;2023-03-16T00:39:53;97931.41;;;-1.52;83.95
50011;BME280;35899;50.352;19.390;2023-03-16T00:42:20;97936.33;;;-1.52;83.93
50011;BME280;35899;50.352;19.390;2023-03-16T00:44:47;97936.02;;;-1.53;83.90
50011;BME280;35899;50.352;19.390;2023-03-16T00:47:13;97936.05;;;-1.55;83.91
50011;BME280;35899;50.352;19.390;2023-03-16T00:49:41;97939.82;;;-1.57;83.91
50011;BME280;35899;50.352;19.390;2023-03-16T00:52:09;97938.66;;;-1.58;84.13
50011;BME280;35899;50.352;19.390;2023-03-16T00:54:35;97943.45;;;-1.60;84.14
50011;BME280;35899;50.352;19.390;2023-03-16T00:57:02;97943.65;;;-1.62;84.10
50011;BME280;35899;50.352;19.390;2023-03-16T00:59:29;97943.70;;;-1.64;84.20
50011;BME280;35899;50.352;19.390;2023-03-16T01:01:55;97941.18;;;-1.65;84.41
50011;BME280;35899;50.352;19.390;2023-03-16T01:04:22;97941.23;;;-1.67;84.46
50011;BME280;35899;50.352;19.390;2023-03-16T01:06:48;97940.08;;;-1.69;84.42
50011;BME280;35899;50.352;19.390;2023-03-16T01:09:15;97939.78;;;-1.71;84.57
50011;BME280;35899;50.352;19.390;2023-03-16T01:11:41;97939.68;;;-1.74;84.43
50011;BME280;35899;50.352;19.390;2023-03-16T01:14:08;97938.20;;;-1.77;84.55
50011;BME280;35899;50.352;19.390;2023-03-16T01:16:35;97941.80;;;-1.79;84.74
50011;BME280;35899;50.352;19.390;2023-03-16T01:19:01;97945.59;;;-1.81;84.76
50011;BME280;35899;50.352;19.390;2023-03-16T01:21:27;97948.36;;;-1.84;84.77
50011;BME280;35899;50.352;19.390;2023-03-16T01:23:54;97949.27;;;-1.87;84.83
50011;BME280;35899;50.352;19.390;2023-03-16T01:26:20;97956.75;;;-1.88;84.85
50011;BME280;35899;50.352;19.390;2023-03-16T01:28:47;97958.67;;;-1.90;84.88
50011;BME280;35899;50.352;19.390;2023-03-16T01:31:13;97956.34;;;-1.93;85.06
50011;BME280;35899;50.352;19.390;2023-03-16T01:33:41;97959.10;;;-1.95;85.11
50011;BME280;35899;50.352;19.390;2023-03-16T01:36:11;97958.13;;;-1.98;85.16
50011;BME280;35899;50.352;19.390;2023-03-16T01:38:52;97961.40;;;-2.00;85.26
50011;BME280;35899;50.352;19.390;2023-03-16T01:41:18;97963.14;;;-2.03;85.24
50011;BME280;35899;50.352;19.390;2023-03-16T01:43:45;97966.79;;;-2.07;85.20
50011;BME280;35899;50.352;19.390;2023-03-16T01:46:13;97963.11;;;-2.09;85.49
50011;BME280;35899;50.352;19.390;2023-03-16T01:51:11;97958.79;;;-2.14;85.55
50011;BME280;35899;50.352;19.390;2023-03-16T01:53:40;97960.70;;;-2.18;85.37
50011;BME280;35899;50.352;19.390;2023-03-16T01:56:09;97964.16;;;-2.21;85.48
50011;BME280;35899;50.352;19.390;2023-03-16T01:58:36;97961.17;;;-2.24;85.83
50011;BME280;35899;50.352;19.390;2023-03-16T02:01:03;97969.34;;;-2.27;85.85
50011;BME280;35899;50.352;19.390;2023-03-16T02:03:30;97971.23;;;-2.27;86.01
50011;BME280;35899;50.352;19.390;2023-03-16T02:06:10;97970.90;;;-2.29;86.18
50011;BME280;35899;50.352;19.390;2023-03-16T02:08:40;97970.41;;;-2.30;86.19
50011;BME280;35899;50.352;19.390;2023-03-16T02:11:08;97975.70;;;-2.31;86.17
50011;BME280;35899;50.352;19.390;2023-03-16T02:13:43;97977.41;;;-2.32;86.16
50011;BME280;35899;50.352;19.390;2023-03-16T02:16:10;97983.91;;;-2.35;86.11
50011;BME280;35899;50.352;19.390;2023-03-16T02:18:37;97982.76;;;-2.37;86.28
50011;BME280;35899;50.352;19.390;2023-03-16T02:21:15;97986.16;;;-2.38;86.22
50011;BME280;35899;50.352;19.390;2023-03-16T02:23:44;97989.24;;;-2.40;86.37
50011;BME280;35899;50.352;19.390;2023-03-16T02:31:35;98000.56;;;-2.48;86.42
50011;BME280;35899;50.352;19.390;2023-03-16T02:34:02;98002.98;;;-2.51;86.36
50011;BME280;35899;50.352;19.390;2023-03-16T02:36:29;98003.36;;;-2.53;86.45
50011;BME280;35899;50.352;19.390;2023-03-16T02:38:55;98005.41;;;-2.54;86.64
50011;BME280;35899;50.352;19.390;2023-03-16T02:41:23;98008.65;;;-2.56;86.58
50011;BME280;35899;50.352;19.390;2023-03-16T02:44:00;98010.20;;;-2.57;86.75
50011;BME280;35899;50.352;19.390;2023-03-16T02:46:31;98011.89;;;-2.57;86.86
50011;BME280;35899;50.352;19.390;2023-03-16T02:51:25;98019.19;;;-2.58;87.05
50011;BME280;35899;50.352;19.390;2023-03-16T02:53:52;98020.90;;;-2.59;87.11
50011;BME280;35899;50.352;19.390;2023-03-16T02:56:19;98024.96;;;-2.59;87.22
50011;BME280;35899;50.352;19.390;2023-03-16T02:58:45;98031.93;;;-2.60;87.15
50011;BME280;35899;50.352;19.390;2023-03-16T03:01:15;98032.61;;;-2.60;87.25
50011;BME280;35899;50.352;19.390;2023-03-16T03:03:41;98038.73;;;-2.61;87.25
50011;BME280;35899;50.352;19.390;2023-03-16T03:06:08;98040.27;;;-2.62;87.28
50011;BME280;35899;50.352;19.390;2023-03-16T03:08:35;98048.41;;;-2.63;87.26
50011;BME280;35899;50.352;19.390;2023-03-16T03:11:02;98051.50;;;-2.66;87.08
50011;BME280;35899;50.352;19.390;2023-03-16T03:13:28;98055.43;;;-2.68;87.07
50011;BME280;35899;50.352;19.390;2023-03-16T03:15:54;98056.13;;;-2.69;87.27
50011;BME280;35899;50.352;19.390;2023-03-16T03:18:23;98056.50;;;-2.72;87.23
50011;BME280;35899;50.352;19.390;2023-03-16T03:20:50;98057.73;;;-2.75;87.16
50011;BME280;35899;50.352;19.390;2023-03-16T03:23:16;98060.96;;;-2.76;87.34
50011;BME280;35899;50.352;19.390;2023-03-16T03:25:43;98063.36;;;-2.78;87.29
50011;BME280;35899;50.352;19.390;2023-03-16T03:28:09;98063.39;;;-2.80;87.26
50011;BME280;35899;50.352;19.390;2023-03-16T03:30:36;98064.61;;;-2.82;87.42
50011;BME280;35899;50.352;19.390;2023-03-16T03:33:03;98066.32;;;-2.83;87.48
50011;BME280;35899;50.352;19.390;2023-03-16T03:35:29;98075.80;;;-2.83;87.55
50011;BME280;35899;50.352;19.390;2023-03-16T03:37:56;98077.84;;;-2.83;87.79
50011;BME280;35899;50.352;19.390;2023-03-16T03:40:23;98082.23;;;-2.83;87.61
50011;BME280;35899;50.352;19.390;2023-03-16T03:42:55;98082.95;;;-2.86;87.61
50011;BME280;35899;50.352;19.390;2023-03-16T03:45:22;98082.48;;;-2.88;87.64
50011;BME280;35899;50.352;19.390;2023-03-16T03:47:48;98084.34;;;-2.88;87.74
50011;BME280;35899;50.352;19.390;2023-03-16T03:50:18;98085.71;;;-2.89;87.64
50011;BME280;35899;50.352;19.390;2023-03-16T03:53:04;98087.45;;;-2.93;87.74
50011;BME280;35899;50.352;19.390;2023-03-16T03:55:33;98083.75;;;-2.94;87.85
50011;BME280;35899;50.352;19.390;2023-03-16T03:58:00;98082.39;;;-2.94;87.82
50011;BME280;35899;50.352;19.390;2023-03-16T04:00:27;98089.19;;;-2.96;87.62
50011;BME280;35899;50.352;19.390;2023-03-16T04:02:54;98092.61;;;-2.99;87.41
50011;BME280;35899;50.352;19.390;2023-03-16T04:05:27;98092.64;;;-3.02;87.41
50011;BME280;35899;50.352;19.390;2023-03-16T04:07:53;98092.16;;;-3.05;87.65
50011;BME280;35899;50.352;19.390;2023-03-16T04:10:20;98091.34;;;-3.06;87.69
50011;BME280;35899;50.352;19.390;2023-03-16T04:12:46;98088.31;;;-3.07;87.79
50011;BME280;35899;50.352;19.390;2023-03-16T04:15:13;98091.72;;;-3.08;87.90
50011;BME280;35899;50.352;19.390;2023-03-16T04:17:59;98095.46;;;-3.09;87.91
50011;BME280;35899;50.352;19.390;2023-03-16T04:20:26;98095.97;;;-3.09;88.09
50011;BME280;35899;50.352;19.390;2023-03-16T04:22:53;98098.51;;;-3.10;88.13
50011;BME280;35899;50.352;19.390;2023-03-16T04:25:20;98099.70;;;-3.11;88.08
50011;BME280;35899;50.352;19.390;2023-03-16T04:27:47;98102.09;;;-3.12;88.10
50011;BME280;35899;50.352;19.390;2023-03-16T04:30:14;98104.66;;;-3.14;88.12
50011;BME280;35899;50.352;19.390;2023-03-16T04:32:44;98106.20;;;-3.16;88.06
50011;BME280;35899;50.352;19.390;2023-03-16T04:35:13;98111.33;;;-3.19;87.85
50011;BME280;35899;50.352;19.390;2023-03-16T04:37:44;98110.15;;;-3.21;87.99
50011;BME280;35899;50.352;19.390;2023-03-16T04:40:11;98114.58;;;-3.22;88.17
50011;BME280;35899;50.352;19.390;2023-03-16T04:42:37;98116.61;;;-3.23;88.20
50011;BME280;35899;50.352;19.390;2023-03-16T04:45:04;98114.10;;;-3.26;87.92
50011;BME280;35899;50.352;19.390;2023-03-16T04:47:32;98116.68;;;-3.28;87.92
50011;BME280;35899;50.352;19.390;2023-03-16T04:49:59;98121.26;;;-3.30;88.10
50011;BME280;35899;50.352;19.390;2023-03-16T04:52:25;98127.69;;;-3.30;88.31
50011;BME280;35899;50.352;19.390;2023-03-16T04:54:51;98132.42;;;-3.29;88.43
50011;BME280;35899;50.352;19.390;2023-03-16T04:57:18;98131.27;;;-3.33;87.78
50011;BME280;35899;50.352;19.390;2023-03-16T04:59:48;98137.41;;;-3.36;87.97
50011;BME280;35899;50.352;19.390;2023-03-16T05:02:25;98133.16;;;-3.35;88.18
50011;BME280;35899;50.352;19.390;2023-03-16T05:04:51;98133.83;;;-3.34;88.54
50011;BME280;35899;50.352;19.390;2023-03-16T05:07:18;98134.64;;;-3.31;88.51
50011;BME280;35899;50.352;19.390;2023-03-16T05:09:48;98137.66;;;-3.28;88.60
50011;BME280;35899;50.352;19.390;2023-03-16T05:12:33;98139.80;;;-3.23;88.65
50011;BME280;35899;50.352;19.390;2023-03-16T05:15:02;98138.05;;;-3.19;88.53
50011;BME280;35899;50.352;19.390;2023-03-16T05:17:40;98138.83;;;-3.12;88.54
50011;BME280;35899;50.352;19.390;2023-03-16T05:20:10;98139.61;;;-3.06;88.52
50011;BME280;35899;50.352;19.390;2023-03-16T05:22:44;98140.35;;;-2.98;88.68
50011;BME280;35899;50.352;19.390;2023-03-16T05:25:18;98140.92;;;-2.91;88.47
50011;BME280;35899;50.352;19.390;2023-03-16T05:27:48;98145.42;;;-2.85;88.13
50011;BME280;35899;50.352;19.390;2023-03-16T05:30:19;98150.96;;;-2.80;88.05
50011;BME280;35899;50.352;19.390;2023-03-16T05:32:45;98152.39;;;-2.73;88.21
50011;BME280;35899;50.352;19.390;2023-03-16T05:35:12;98151.73;;;-2.61;88.41
50011;BME280;35899;50.352;19.390;2023-03-16T05:37:40;98151.23;;;-2.49;88.42
50011;BME280;35899;50.352;19.390;2023-03-16T05:40:11;98151.61;;;-2.41;88.15
50011;BME280;35899;50.352;19.390;2023-03-16T05:42:38;98155.55;;;-2.32;88.02
50011;BME280;35899;50.352;19.390;2023-03-16T05:45:05;98158.27;;;-2.21;88.15
50011;BME280;35899;50.352;19.390;2023-03-16T05:47:44;98160.62;;;-2.09;88.10
50011;BME280;35899;50.352;19.390;2023-03-16T05:50:11;98163.36;;;-1.99;87.94
50011;BME280;35899;50.352;19.390;2023-03-16T05:52:40;98164.40;;;-1.90;87.71
50011;BME280;35899;50.352;19.390;2023-03-16T05:55:13;98169.48;;;-1.80;87.70
50011;BME280;35899;50.352;19.390;2023-03-16T05:57:42;98178.13;;;-1.69;87.51
50011;BME280;35899;50.352;19.390;2023-03-16T06:00:09;98178.84;;;-1.62;87.26
50011;BME280;35899;50.352;19.390;2023-03-16T06:02:38;98181.44;;;-1.54;86.92
50011;BME280;35899;50.352;19.390;2023-03-16T06:05:05;98186.80;;;-1.51;86.60
50011;BME280;35899;50.352;19.390;2023-03-16T06:07:31;98186.52;;;-1.44;86.70
50011;BME280;35899;50.352;19.390;2023-03-16T06:09:58;98187.81;;;-1.31;86.98
50011;BME280;35899;50.352;19.390;2023-03-16T06:12:25;98185.19;;;-1.17;87.20
50011;BME280;35899;50.352;19.390;2023-03-16T06:14:52;98187.30;;;-1.04;87.13
50011;BME280;35899;50.352;19.390;2023-03-16T06:17:18;98185.02;;;-0.91;87.18
50011;BME280;35899;50.352;19.390;2023-03-16T06:19:45;98188.85;;;-0.78;87.12
50011;BME280;35899;50.352;19.390;2023-03-16T06:22:11;98190.20;;;-0.70;86.66
50011;BME280;35899;50.352;19.390;2023-03-16T06:24:37;98195.61;;;-0.61;86.49
50011;BME280;35899;50.352;19.390;2023-03-16T06:27:04;98195.89;;;-0.49;86.55
50011;BME280;35899;50.352;19.390;2023-03-16T06:29:35;98196.35;;;-0.39;86.18
50011;BME280;35899;50.352;19.390;2023-03-16T06:32:02;98198.20;;;-0.31;86.20
50011;BME280;35899;50.352;19.390;2023-03-16T06:34:29;98198.28;;;-0.19;86.26
50011;BME280;35899;50.352;19.390;2023-03-16T06:36:55;98200.39;;;-0.08;86.27
50011;BME280;35899;50.352;19.390;2023-03-16T06:39:21;98198.10;;;0.04;86.32
50011;BME280;35899;50.352;19.390;2023-03-16T06:41:49;98200.24;;;0.14;86.05
50011;BME280;35899;50.352;19.390;2023-03-16T06:44:16;98204.51;;;0.21;85.71
50011;BME280;35899;50.352;19.390;2023-03-16T06:46:53;98207.52;;;0.30;85.66
50011;BME280;35899;50.352;19.390;2023-03-16T06:49:20;98208.95;;;0.41;85.66
50011;BME280;35899;50.352;19.390;2023-03-16T06:51:47;98206.85;;;0.51;85.54
50011;BME280;35899;50.352;19.390;2023-03-16T06:54:14;98209.91;;;0.57;85.15
50011;BME280;35899;50.352;19.390;2023-03-16T06:56:40;98214.92;;;0.61;84.87
50011;BME280;35899;50.352;19.390;2023-03-16T06:59:07;98218.69;;;0.67;85.00
50011;BME280;35899;50.352;19.390;2023-03-16T07:01:35;98221.16;;;0.77;85.11
50011;BME280;35899;50.352;19.390;2023-03-16T07:04:01;98223.81;;;0.86;85.23
50011;BME280;35899;50.352;19.390;2023-03-16T07:06:29;98229.27;;;0.99;85.36
50011;BME280;35899;50.352;19.390;2023-03-16T07:09:14;98231.92;;;1.08;84.60
50011;BME280;35899;50.352;19.390;2023-03-16T07:11:46;98232.52;;;1.11;84.12
50011;BME280;35899;50.352;19.390;2023-03-16T07:14:12;98232.13;;;1.13;83.90
50011;BME280;35899;50.352;19.390;2023-03-16T07:16:39;98235.27;;;1.17;83.82
50011;BME280;35899;50.352;19.390;2023-03-16T07:19:09;98237.77;;;1.25;84.09
50011;BME280;35899;50.352;19.390;2023-03-16T07:21:35;98239.48;;;1.31;83.74
50011;BME280;35899;50.352;19.390;2023-03-16T07:24:02;98241.88;;;1.37;83.89
50011;BME280;35899;50.352;19.390;2023-03-16T07:26:31;98236.05;;;1.44;83.57
50011;BME280;35899;50.352;19.390;2023-03-16T07:29:12;98239.29;;;1.50;83.43
50011;BME280;35899;50.352;19.390;2023-03-16T07:31:38;98241.90;;;1.54;83.43
50011;BME280;35899;50.352;19.390;2023-03-16T07:34:12;98243.70;;;1.63;83.58
50011;BME280;35899;50.352;19.390;2023-03-16T07:36:45;98248.33;;;1.74;83.56
50011;BME280;35899;50.352;19.390;2023-03-16T07:39:13;98251.73;;;1.80;83.05
50011;BME280;35899;50.352;19.390;2023-03-16T07:41:40;98251.92;;;1.85;82.97
50011;BME280;35899;50.352;19.390;2023-03-16T07:44:13;98254.50;;;1.90;82.54
50011;BME280;35899;50.352;19.390;2023-03-16T07:46:40;98256.34;;;1.97;82.51
50011;BME280;35899;50.352;19.390;2023-03-16T07:49:06;98257.73;;;2.02;81.93
50011;BME280;35899;50.352;19.390;2023-03-16T07:51:32;98260.86;;;2.06;81.82
50011;BME280;35899;50.352;19.390;2023-03-16T07:53:59;98259.45;;;2.07;81.18
50011;BME280;35899;50.352;19.390;2023-03-16T07:56:29;98255.05;;;2.11;81.72
50011;BME280;35899;50.352;19.390;2023-03-16T07:59:08;98257.41;;;2.18;81.25
50011;BME280;35899;50.352;19.390;2023-03-16T08:01:36;98257.66;;;2.21;81.13
50011;BME280;35899;50.352;19.390;2023-03-16T08:04:02;98261.96;;;2.25;80.93
50011;BME280;35899;50.352;19.390;2023-03-16T08:06:30;98256.70;;;2.30;80.62
50011;BME280;35899;50.352;19.390;2023-03-16T08:08:56;98259.67;;;2.33;80.03
50011;BME280;35899;50.352;19.390;2023-03-16T08:11:29;98261.55;;;2.39;80.19
50011;BME280;35899;50.352;19.390;2023-03-16T08:13:58;98264.14;;;2.48;80.31
50011;BME280;35899;50.352;19.390;2023-03-16T08:16:32;98265.92;;;2.62;80.24
50011;BME280;35899;50.352;19.390;2023-03-16T08:19:02;98263.50;;;2.68;79.33
50011;BME280;35899;50.352;19.390;2023-03-16T08:21:29;98264.09;;;2.81;79.59
50011;BME280;35899;50.352;19.390;2023-03-16T08:23:55;98264.31;;;3.00;79.14
50011;BME280;35899;50.352;19.390;2023-03-16T08:26:22;98264.89;;;3.18;78.79
50011;BME280;35899;50.352;19.390;2023-03-16T08:28:57;98263.73;;;3.27;77.57
50011;BME280;35899;50.352;19.390;2023-03-16T08:31:24;98268.95;;;3.35;77.37
50011;BME280;35899;50.352;19.390;2023-03-16T08:34:05;98268.35;;;3.61;77.31
50011;BME280;35899;50.352;19.390;2023-03-16T08:36:35;98267.14;;;3.98;76.43
50011;BME280;35899;50.352;19.390;2023-03-16T08:39:04;98263.55;;;4.24;76.09
50011;BME280;35899;50.352;19.390;2023-03-16T08:41:40;98267.45;;;4.43;76.35
50011;BME280;35899;50.352;19.390;2023-03-16T08:44:11;98264.86;;;4.56;75.75
50011;BME280;35899;50.352;19.390;2023-03-16T08:46:38;98262.73;;;4.66;75.62
50011;BME280;35899;50.352;19.390;2023-03-16T08:49:08;98265.84;;;4.70;73.61
50011;BME280;35899;50.352;19.390;2023-03-16T08:51:35;98270.80;;;4.62;73.24
50011;BME280;35899;50.352;19.390;2023-03-16T08:54:03;98271.17;;;4.57;73.32
50011;BME280;35899;50.352;19.390;2023-03-16T08:57:34;98278.05;;;4.48;72.58
50011;BME280;35899;50.352;19.390;2023-03-16T09:00:04;98282.60;;;4.41;72.50
50011;BME280;35899;50.352;19.390;2023-03-16T09:02:41;98286.40;;;4.44;72.47
50011;BME280;35899;50.352;19.390;2023-03-16T09:06:04;98282.30;;;4.44;71.16
50011;BME280;35899;50.352;19.390;2023-03-16T09:08:31;98284.20;;;4.40;71.55
50011;BME280;35899;50.352;19.390;2023-03-16T09:11:02;98283.66;;;4.32;71.12
50011;BME280;35899;50.352;19.390;2023-03-16T09:13:30;98291.98;;;4.20;71.18
50011;BME280;35899;50.352;19.390;2023-03-16T09:15:56;98292.13;;;4.17;71.81
50011;BME280;35899;50.352;19.390;2023-03-16T09:18:23;98291.72;;;4.09;71.90
50011;BME280;35899;50.352;19.390;2023-03-16T09:20:49;98284.02;;;4.18;71.83
50011;BME280;35899;50.352;19.390;2023-03-16T09:23:16;98283.96;;;4.50;72.41
50011;BME280;35899;50.352;19.390;2023-03-16T09:25:44;98281.71;;;4.93;71.74
50011;BME280;35899;50.352;19.390;2023-03-16T09:28:10;98282.38;;;5.18;70.52
50011;BME280;35899;50.352;19.390;2023-03-16T09:30:37;98283.86;;;5.51;70.86
50011;BME280;35899;50.352;19.390;2023-03-16T09:33:04;98288.02;;;5.62;70.13
50011;BME280;35899;50.352;19.390;2023-03-16T09:35:32;98293.59;;;5.53;68.32
50011;BME280;35899;50.352;19.390;2023-03-16T09:38:02;98291.58;;;5.31;67.85
50011;BME280;35899;50.352;19.390;2023-03-16T09:40:35;98293.73;;;5.18;66.43
50011;BME280;35899;50.352;19.390;2023-03-16T09:48:27;98296.84;;;5.72;65.70
50011;BME280;35899;50.352;19.390;2023-03-16T09:50:56;98294.43;;;5.65;64.46
50011;BME280;35899;50.352;19.390;2023-03-16T09:53:25;98302.55;;;5.48;64.72
50011;BME280;35899;50.352;19.390;2023-03-16T09:56:01;98302.33;;;5.25;65.15
50011;BME280;35899;50.352;19.390;2023-03-16T09:58:30;98304.93;;;5.04;64.89
50011;BME280;35899;50.352;19.390;2023-03-16T10:01:13;98304.48;;;5.06;64.80
50011;BME280;35899;50.352;19.390;2023-03-16T10:06:16;98293.91;;;7.25;64.93
50011;BME280;35899;50.352;19.390;2023-03-16T10:08:44;98292.41;;;8.38;63.58
50011;BME280;35899;50.352;19.390;2023-03-16T10:19:02;98300.91;;;8.63;58.51
50011;BME280;35899;50.352;19.390;2023-03-16T10:21:34;98308.19;;;8.31;58.63
50011;BME280;35899;50.352;19.390;2023-03-16T10:24:16;98314.71;;;8.18;58.91
50011;BME280;35899;50.352;19.390;2023-03-16T10:26:48;98315.58;;;9.08;56.76
50011;BME280;35899;50.352;19.390;2023-03-16T10:29:16;98313.69;;;10.10;57.01
50011;BME280;35899;50.352;19.390;2023-03-16T10:31:44;98309.94;;;10.78;55.70
50011;BME280;35899;50.352;19.390;2023-03-16T10:34:11;98306.91;;;11.16;56.18
50011;BME280;35899;50.352;19.390;2023-03-16T10:36:40;98306.55;;;10.98;55.72
50011;BME280;35899;50.352;19.390;2023-03-16T10:39:11;98306.13;;;10.45;53.72
50011;BME280;35899;50.352;19.390;2023-03-16T10:41:47;98312.99;;;9.55;53.75
50011;BME280;35899;50.352;19.390;2023-03-16T10:44:23;98315.72;;;8.85;54.64
50011;BME280;35899;50.352;19.390;2023-03-16T10:47:04;98319.48;;;8.26;54.12
50011;BME280;35899;50.352;19.390;2023-03-16T10:49:38;98321.34;;;7.68;54.65
50011;BME280;35899;50.352;19.390;2023-03-16T10:52:47;98324.98;;;7.34;55.72
50011;BME280;35899;50.352;19.390;2023-03-16T10:55:00;98325.86;;;6.99;55.83
50011;BME280;35899;50.352;19.390;2023-03-16T10:57:31;98326.17;;;7.16;56.00
50011;BME280;35899;50.352;19.390;2023-03-16T11:00:12;98319.63;;;8.85;54.57
50011;BME280;35899;50.352;19.390;2023-03-16T11:02:39;98316.80;;;10.56;53.26
50011;BME280;35899;50.352;19.390;2023-03-16T11:05:12;98312.53;;;12.04;51.49
50011;BME280;35899;50.352;19.390;2023-03-16T11:07:46;98309.06;;;13.52;50.38
50011;BME280;35899;50.352;19.390;2023-03-16T11:12:51;98307.49;;;14.75;46.89
50011;BME280;35899;50.352;19.390;2023-03-16T11:15:18;98312.92;;;13.50;46.21
50011;BME280;35899;50.352;19.390;2023-03-16T11:17:56;98318.19;;;12.15;46.67
50011;BME280;35899;50.352;19.390;2023-03-16T11:20:25;98319.81;;;11.43;47.56
50011;BME280;35899;50.352;19.390;2023-03-16T11:22:52;98317.40;;;12.94;46.72
50011;BME280;35899;50.352;19.390;2023-03-16T11:30:37;98315.13;;;12.29;46.83
50011;BME280;35899;50.352;19.390;2023-03-16T11:33:10;98316.39;;;11.42;47.18
50011;BME280;35899;50.352;19.390;2023-03-16T11:41:10;98312.59;;;12.10;46.06
50011;BME280;35899;50.352;19.390;2023-03-16T11:43:54;98306.11;;;13.43;44.13
50011;BME280;35899;50.352;19.390;2023-03-16T11:46:26;98303.70;;;13.06;44.37
50011;BME280;35899;50.352;19.390;2023-03-16T11:56:47;98292.83;;;10.00;45.40
50011;BME280;35899;50.352;19.390;2023-03-16T11:59:30;98297.13;;;9.44;45.35
50011;BME280;35899;50.352;19.390;2023-03-16T12:05:38;98298.95;;;8.48;46.65
50011;BME280;35899;50.352;19.390;2023-03-16T12:10:06;98298.52;;;8.47;47.03
50011;BME280;35899;50.352;19.390;2023-03-16T12:17:33;98296.81;;;8.69;47.60
50011;BME280;35899;50.352;19.390;2023-03-16T12:20:04;98295.73;;;8.69;47.29
50011;BME280;35899;50.352;19.390;2023-03-16T12:25:01;98300.02;;;9.27;46.11
50011;BME280;35899;50.352;19.390;2023-03-16T12:27:33;98296.84;;;9.71;45.55
50011;BME280;35899;50.352;19.390;2023-03-16T12:32:55;98277.65;;;14.63;42.42
50011;BME280;35899;50.352;19.390;2023-03-16T12:35:32;98281.42;;;14.02;42.21
50011;BME280;35899;50.352;19.390;2023-03-16T12:38:23;98275.69;;;13.18;41.65
50011;BME280;35899;50.352;19.390;2023-03-16T12:43:59;98283.63;;;11.58;42.29
50011;BME280;35899;50.352;19.390;2023-03-16T12:49:01;98290.89;;;11.17;40.90
50011;BME280;35899;50.352;19.390;2023-03-16T12:51:41;98293.13;;;10.46;41.22
50011;BME280;35899;50.352;19.390;2023-03-16T12:54:47;98293.42;;;9.79;40.89
50011;BME280;35899;50.352;19.390;2023-03-16T12:57:05;98299.98;;;9.65;41.65
50011;BME280;35899;50.352;19.390;2023-03-16T12:59:37;98294.90;;;10.64;41.38
50011;BME280;35899;50.352;19.390;2023-03-16T13:02:07;98296.83;;;10.45;42.02
50011;BME280;35899;50.352;19.390;2023-03-16T13:04:39;98296.30;;;11.31;41.73
50011;BME280;35899;50.352;19.390;2023-03-16T13:07:07;98300.91;;;11.54;41.48
50011;BME280;35899;50.352;19.390;2023-03-16T13:09:35;98301.23;;;10.79;40.65
50011;BME280;35899;50.352;19.390;2023-03-16T13:12:07;98302.33;;;9.97;40.80
50011;BME280;35899;50.352;19.390;2023-03-16T13:14:35;98307.89;;;9.34;40.38
50011;BME280;35899;50.352;19.390;2023-03-16T13:17:20;98304.09;;;8.80;41.23
50011;BME280;35899;50.352;19.390;2023-03-16T13:19:58;98308.48;;;8.41;42.52
50011;BME280;35899;50.352;19.390;2023-03-16T13:22:26;98304.63;;;8.61;42.60
50011;BME280;35899;50.352;19.390;2023-03-16T13:24:59;98306.21;;;9.21;42.51
50011;BME280;35899;50.352;19.390;2023-03-16T13:27:36;98302.77;;;9.06;43.00
50011;BME280;35899;50.352;19.390;2023-03-16T13:30:39;98298.95;;;10.63;42.62
50011;BME280;35899;50.352;19.390;2023-03-16T13:33:32;98293.09;;;14.71;40.19
50011;BME280;35899;50.352;19.390;2023-03-16T13:35:51;98290.41;;;14.97;39.62
50011;BME280;35899;50.352;19.390;2023-03-16T13:38:20;98295.84;;;14.25;39.43
50011;BME280;35899;50.352;19.390;2023-03-16T13:40:48;98293.09;;;13.70;39.30
50011;BME280;35899;50.352;19.390;2023-03-16T13:43:15;98294.47;;;15.83;37.23
50011;BME280;35899;50.352;19.390;2023-03-16T13:45:43;98285.20;;;16.76;35.59
50011;BME280;35899;50.352;19.390;2023-03-16T13:48:13;98292.06;;;15.16;35.66
50011;BME280;35899;50.352;19.390;2023-03-16T13:50:41;98294.59;;;13.69;36.47
50011;BME280;35899;50.352;19.390;2023-03-16T13:53:15;98298.95;;;12.37;37.02
50011;BME280;35899;50.352;19.390;2023-03-16T13:55:47;98300.52;;;11.24;37.80
50011;BME280;35899;50.352;19.390;2023-03-16T13:58:28;98301.92;;;10.26;38.12
50011;BME280;35899;50.352;19.390;2023-03-16T14:00:57;98302.25;;;9.56;39.43
50011;BME280;35899;50.352;19.390;2023-03-16T14:03:31;98299.10;;;9.07;40.01
50011;BME280;35899;50.352;19.390;2023-03-16T14:05:58;98299.16;;;8.70;40.87
50011;BME280;35899;50.352;19.390;2023-03-16T14:08:42;98302.59;;;8.38;41.58
50011;BME280;35899;50.352;19.390;2023-03-16T14:11:11;98302.46;;;8.02;41.73
50011;BME280;35899;50.352;19.390;2023-03-16T14:13:38;98304.41;;;7.72;41.75
50011;BME280;35899;50.352;19.390;2023-03-16T14:18:38;98307.21;;;7.24;42.29